Algerita, Texas
Current Conditions -  °F | °C
As of 10:30 AM on Tuesday 27 Jan 2015 (Local Time) from KAQO Reporting Station
Clear Clear  
Wind Chill: 63°   Ceiling: Unl
Heat Index: 63°   Visibility: 10mi
Dew Point: 39°   Wind: 0mph
Humidity: 42%   Direction: NA
Pressure: 30.27"   Gusts: NA
Location:  31.0718°N, 98.8001°W
Report Text: KAQO 271630Z AUTO 00000KT 10SM CLR 17/04 A3027 RMK AO2
Loading
Personal Weather Stations






























Interactive Weather Map New forecast layout! Learn more

10-Day Weather Forecast

Advertisements
Track Severe Weather on mobile